sensor_id;sensor_type;location;lat;lon;timestamp;P1;durP1;ratioP1;P2;durP2;ratioP2
62574;SDS011;70119;45.638;11.714;2023-07-02T00:01:47;8.93;;;5.15;;
62574;SDS011;70119;45.638;11.714;2023-07-02T00:04:14;8.52;;;5.20;;
62574;SDS011;70119;45.638;11.714;2023-07-02T00:06:47;10.40;;;5.20;;
62574;SDS011;70119;45.638;11.714;2023-07-02T00:09:14;8.77;;;5.05;;
62574;SDS011;70119;45.638;11.714;2023-07-02T00:11:41;8.68;;;4.82;;
62574;SDS011;70119;45.638;11.714;2023-07-02T00:14:11;9.73;;;5.10;;
62574;SDS011;70119;45.638;11.714;2023-07-02T00:16:39;7.60;;;4.72;;
62574;SDS011;70119;45.638;11.714;2023-07-02T00:19:08;7.07;;;4.75;;
62574;SDS011;70119;45.638;11.714;2023-07-02T00:21:34;8.55;;;4.47;;
62574;SDS011;70119;45.638;11.714;2023-07-02T00:24:02;8.02;;;4.90;;
62574;SDS011;70119;45.638;11.714;2023-07-02T00:26:28;10.30;;;5.38;;
62574;SDS011;70119;45.638;11.714;2023-07-02T00:28:54;10.13;;;5.90;;
62574;SDS011;70119;45.638;11.714;2023-07-02T00:31:21;9.05;;;5.45;;
62574;SDS011;70119;45.638;11.714;2023-07-02T00:33:48;8.65;;;5.10;;
62574;SDS011;70119;45.638;11.714;2023-07-02T00:36:14;6.93;;;4.50;;
62574;SDS011;70119;45.638;11.714;2023-07-02T00:38:41;8.48;;;4.90;;
62574;SDS011;70119;45.638;11.714;2023-07-02T00:41:08;8.27;;;5.07;;
62574;SDS011;70119;45.638;11.714;2023-07-02T00:43:34;9.35;;;5.18;;
62574;SDS011;70119;45.638;11.714;2023-07-02T00:46:00;12.07;;;6.00;;
62574;SDS011;70119;45.638;11.714;2023-07-02T00:48:27;7.32;;;5.10;;
62574;SDS011;70119;45.638;11.714;2023-07-02T00:50:54;10.48;;;5.13;;
62574;SDS011;70119;45.638;11.714;2023-07-02T00:53:21;7.70;;;5.07;;
62574;SDS011;70119;45.638;11.714;2023-07-02T00:55:47;8.52;;;5.60;;
62574;SDS011;70119;45.638;11.714;2023-07-02T00:58:12;10.20;;;5.20;;
62574;SDS011;70119;45.638;11.714;2023-07-02T01:00:41;7.75;;;5.05;;
62574;SDS011;70119;45.638;11.714;2023-07-02T01:03:08;8.40;;;5.78;;
62574;SDS011;70119;45.638;11.714;2023-07-02T01:05:34;8.95;;;5.15;;
62574;SDS011;70119;45.638;11.714;2023-07-02T01:08:03;9.73;;;5.97;;
62574;SDS011;70119;45.638;11.714;2023-07-02T01:10:30;9.45;;;5.78;;
62574;SDS011;70119;45.638;11.714;2023-07-02T01:13:01;10.93;;;6.53;;
62574;SDS011;70119;45.638;11.714;2023-07-02T01:15:33;9.73;;;6.32;;
62574;SDS011;70119;45.638;11.714;2023-07-02T01:17:59;12.00;;;6.20;;
62574;SDS011;70119;45.638;11.714;2023-07-02T01:20:26;10.68;;;6.55;;
62574;SDS011;70119;45.638;11.714;2023-07-02T01:22:55;9.38;;;6.88;;
62574;SDS011;70119;45.638;11.714;2023-07-02T01:25:27;9.95;;;6.65;;
62574;SDS011;70119;45.638;11.714;2023-07-02T01:27:53;10.45;;;7.28;;
62574;SDS011;70119;45.638;11.714;2023-07-02T01:30:20;10.55;;;6.68;;
62574;SDS011;70119;45.638;11.714;2023-07-02T01:32:46;9.30;;;6.78;;
62574;SDS011;70119;45.638;11.714;2023-07-02T01:35:12;8.73;;;6.38;;
62574;SDS011;70119;45.638;11.714;2023-07-02T01:37:38;9.55;;;6.45;;
62574;SDS011;70119;45.638;11.714;2023-07-02T01:40:04;8.70;;;6.03;;
62574;SDS011;70119;45.638;11.714;2023-07-02T01:42:31;8.82;;;6.00;;
62574;SDS011;70119;45.638;11.714;2023-07-02T01:44:57;10.48;;;6.38;;
62574;SDS011;70119;45.638;11.714;2023-07-02T01:47:23;10.15;;;6.65;;
62574;SDS011;70119;45.638;11.714;2023-07-02T01:49:49;8.30;;;6.00;;
62574;SDS011;70119;45.638;11.714;2023-07-02T01:52:16;8.68;;;5.45;;
62574;SDS011;70119;45.638;11.714;2023-07-02T01:54:42;10.27;;;6.30;;
62574;SDS011;70119;45.638;11.714;2023-07-02T01:57:08;7.93;;;5.88;;
62574;SDS011;70119;45.638;11.714;2023-07-02T01:59:34;10.88;;;6.70;;
62574;SDS011;70119;45.638;11.714;2023-07-02T02:02:00;9.05;;;6.15;;
62574;SDS011;70119;45.638;11.714;2023-07-02T02:04:26;8.50;;;5.57;;
62574;SDS011;70119;45.638;11.714;2023-07-02T02:06:52;8.55;;;5.90;;
62574;SDS011;70119;45.638;11.714;2023-07-02T02:09:18;9.63;;;5.80;;
62574;SDS011;70119;45.638;11.714;2023-07-02T02:11:45;9.00;;;5.95;;
62574;SDS011;70119;45.638;11.714;2023-07-02T02:14:13;7.93;;;5.63;;
62574;SDS011;70119;45.638;11.714;2023-07-02T02:16:39;7.43;;;5.20;;
62574;SDS011;70119;45.638;11.714;2023-07-02T02:19:05;7.30;;;5.10;;
62574;SDS011;70119;45.638;11.714;2023-07-02T02:21:31;7.85;;;5.32;;
62574;SDS011;70119;45.638;11.714;2023-07-02T02:23:57;8.55;;;5.70;;
62574;SDS011;70119;45.638;11.714;2023-07-02T02:26:23;10.10;;;6.05;;
62574;SDS011;70119;45.638;11.714;2023-07-02T02:28:50;9.63;;;6.07;;
62574;SDS011;70119;45.638;11.714;2023-07-02T02:31:16;8.10;;;5.78;;
62574;SDS011;70119;45.638;11.714;2023-07-02T02:33:43;8.68;;;5.88;;
62574;SDS011;70119;45.638;11.714;2023-07-02T02:36:09;8.30;;;5.72;;
62574;SDS011;70119;45.638;11.714;2023-07-02T02:38:34;8.00;;;5.97;;
62574;SDS011;70119;45.638;11.714;2023-07-02T02:41:02;10.52;;;6.53;;
62574;SDS011;70119;45.638;11.714;2023-07-02T02:43:28;10.90;;;6.55;;
62574;SDS011;70119;45.638;11.714;2023-07-02T02:45:55;8.45;;;6.18;;
62574;SDS011;70119;45.638;11.714;2023-07-02T02:48:20;9.57;;;6.15;;
62574;SDS011;70119;45.638;11.714;2023-07-02T02:50:48;10.23;;;6.00;;
62574;SDS011;70119;45.638;11.714;2023-07-02T02:53:14;11.38;;;6.30;;
62574;SDS011;70119;45.638;11.714;2023-07-02T02:55:40;10.05;;;5.97;;
62574;SDS011;70119;45.638;11.714;2023-07-02T02:58:06;11.05;;;6.63;;
62574;SDS011;70119;45.638;11.714;2023-07-02T03:00:32;12.23;;;6.50;;
62574;SDS011;70119;45.638;11.714;2023-07-02T03:02:58;10.07;;;6.13;;
62574;SDS011;70119;45.638;11.714;2023-07-02T03:05:24;10.85;;;5.80;;
62574;SDS011;70119;45.638;11.714;2023-07-02T03:07:51;11.82;;;6.03;;
62574;SDS011;70119;45.638;11.714;2023-07-02T03:10:17;12.30;;;6.22;;
62574;SDS011;70119;45.638;11.714;2023-07-02T03:12:43;8.07;;;5.93;;
62574;SDS011;70119;45.638;11.714;2023-07-02T03:15:09;12.07;;;5.82;;
62574;SDS011;70119;45.638;11.714;2023-07-02T03:17:36;11.32;;;6.25;;
62574;SDS011;70119;45.638;11.714;2023-07-02T03:20:02;11.20;;;6.32;;
62574;SDS011;70119;45.638;11.714;2023-07-02T03:24:58;11.43;;;6.03;;
62574;SDS011;70119;45.638;11.714;2023-07-02T03:27:25;11.88;;;6.18;;
62574;SDS011;70119;45.638;11.714;2023-07-02T03:29:51;8.38;;;5.95;;
62574;SDS011;70119;45.638;11.714;2023-07-02T03:32:17;10.32;;;6.18;;
62574;SDS011;70119;45.638;11.714;2023-07-02T03:34:43;11.80;;;5.90;;
62574;SDS011;70119;45.638;11.714;2023-07-02T03:37:09;12.93;;;6.63;;
62574;SDS011;70119;45.638;11.714;2023-07-02T03:39:35;10.15;;;6.55;;
62574;SDS011;70119;45.638;11.714;2023-07-02T03:42:01;10.50;;;6.40;;
62574;SDS011;70119;45.638;11.714;2023-07-02T03:44:27;11.95;;;6.95;;
62574;SDS011;70119;45.638;11.714;2023-07-02T03:46:53;11.15;;;6.70;;
62574;SDS011;70119;45.638;11.714;2023-07-02T03:49:19;11.07;;;6.70;;
62574;SDS011;70119;45.638;11.714;2023-07-02T03:51:45;9.13;;;5.90;;
62574;SDS011;70119;45.638;11.714;2023-07-02T03:54:11;10.07;;;6.28;;
62574;SDS011;70119;45.638;11.714;2023-07-02T03:56:37;10.95;;;6.28;;
62574;SDS011;70119;45.638;11.714;2023-07-02T03:59:03;9.93;;;6.20;;
62574;SDS011;70119;45.638;11.714;2023-07-02T04:01:28;9.90;;;5.80;;
62574;SDS011;70119;45.638;11.714;2023-07-02T04:03:55;10.48;;;6.38;;
62574;SDS011;70119;45.638;11.714;2023-07-02T04:06:21;9.07;;;6.10;;
62574;SDS011;70119;45.638;11.714;2023-07-02T04:08:48;8.85;;;5.80;;
62574;SDS011;70119;45.638;11.714;2023-07-02T04:11:14;9.43;;;5.75;;
62574;SDS011;70119;45.638;11.714;2023-07-02T04:13:39;8.65;;;5.63;;
62574;SDS011;70119;45.638;11.714;2023-07-02T04:16:06;9.25;;;5.82;;
62574;SDS011;70119;45.638;11.714;2023-07-02T04:18:32;9.38;;;5.47;;
62574;SDS011;70119;45.638;11.714;2023-07-02T04:20:58;8.52;;;5.40;;
62574;SDS011;70119;45.638;11.714;2023-07-02T04:23:25;8.93;;;5.70;;
62574;SDS011;70119;45.638;11.714;2023-07-02T04:25:50;9.25;;;5.68;;
62574;SDS011;70119;45.638;11.714;2023-07-02T04:28:16;7.63;;;5.53;;
62574;SDS011;70119;45.638;11.714;2023-07-02T04:30:43;8.45;;;5.50;;
62574;SDS011;70119;45.638;11.714;2023-07-02T04:33:09;8.68;;;5.80;;
62574;SDS011;70119;45.638;11.714;2023-07-02T04:35:39;8.15;;;5.40;;
62574;SDS011;70119;45.638;11.714;2023-07-02T04:38:05;9.35;;;5.43;;
62574;SDS011;70119;45.638;11.714;2023-07-02T04:40:32;9.48;;;5.43;;
62574;SDS011;70119;45.638;11.714;2023-07-02T04:42:58;8.50;;;5.13;;
62574;SDS011;70119;45.638;11.714;2023-07-02T04:45:24;7.28;;;5.28;;
62574;SDS011;70119;45.638;11.714;2023-07-02T04:47:58;7.88;;;5.43;;
62574;SDS011;70119;45.638;11.714;2023-07-02T04:50:27;9.80;;;5.15;;
62574;SDS011;70119;45.638;11.714;2023-07-02T04:52:54;8.93;;;5.35;;
62574;SDS011;70119;45.638;11.714;2023-07-02T04:55:20;9.52;;;5.13;;
62574;SDS011;70119;45.638;11.714;2023-07-02T04:57:47;7.82;;;5.55;;
62574;SDS011;70119;45.638;11.714;2023-07-02T05:00:14;8.27;;;5.20;;
62574;SDS011;70119;45.638;11.714;2023-07-02T05:02:40;7.88;;;5.22;;
62574;SDS011;70119;45.638;11.714;2023-07-02T05:05:06;8.10;;;5.07;;
62574;SDS011;70119;45.638;11.714;2023-07-02T05:07:34;7.75;;;5.28;;
62574;SDS011;70119;45.638;11.714;2023-07-02T05:10:05;7.43;;;4.88;;
62574;SDS011;70119;45.638;11.714;2023-07-02T05:12:36;7.03;;;4.88;;
62574;SDS011;70119;45.638;11.714;2023-07-02T05:15:07;7.78;;;5.07;;
62574;SDS011;70119;45.638;11.714;2023-07-02T05:17:33;6.70;;;4.72;;
62574;SDS011;70119;45.638;11.714;2023-07-02T05:20:01;7.18;;;4.80;;
62574;SDS011;70119;45.638;11.714;2023-07-02T05:22:30;8.00;;;5.10;;
62574;SDS011;70119;45.638;11.714;2023-07-02T05:24:59;7.70;;;4.72;;
62574;SDS011;70119;45.638;11.714;2023-07-02T05:27:27;7.43;;;4.60;;
62574;SDS011;70119;45.638;11.714;2023-07-02T05:29:57;6.82;;;4.22;;
62574;SDS011;70119;45.638;11.714;2023-07-02T05:32:24;6.50;;;4.35;;
62574;SDS011;70119;45.638;11.714;2023-07-02T05:34:53;5.90;;;4.35;;
62574;SDS011;70119;45.638;11.714;2023-07-02T05:37:19;5.43;;;3.90;;
62574;SDS011;70119;45.638;11.714;2023-07-02T05:39:45;7.43;;;4.57;;
62574;SDS011;70119;45.638;11.714;2023-07-02T05:42:11;7.50;;;4.40;;
62574;SDS011;70119;45.638;11.714;2023-07-02T05:44:38;5.80;;;4.35;;
62574;SDS011;70119;45.638;11.714;2023-07-02T05:47:07;6.88;;;4.53;;
62574;SDS011;70119;45.638;11.714;2023-07-02T05:49:35;6.70;;;4.28;;
62574;SDS011;70119;45.638;11.714;2023-07-02T05:52:03;7.07;;;4.60;;
62574;SDS011;70119;45.638;11.714;2023-07-02T05:54:29;6.68;;;4.88;;
62574;SDS011;70119;45.638;11.714;2023-07-02T05:56:55;7.35;;;4.80;;
62574;SDS011;70119;45.638;11.714;2023-07-02T05:59:20;8.23;;;4.75;;
62574;SDS011;70119;45.638;11.714;2023-07-02T06:01:48;6.88;;;4.80;;
62574;SDS011;70119;45.638;11.714;2023-07-02T06:04:20;7.15;;;4.55;;
62574;SDS011;70119;45.638;11.714;2023-07-02T06:06:46;6.70;;;4.78;;
62574;SDS011;70119;45.638;11.714;2023-07-02T06:09:12;7.13;;;4.53;;
62574;SDS011;70119;45.638;11.714;2023-07-02T06:11:38;6.53;;;4.32;;
62574;SDS011;70119;45.638;11.714;2023-07-02T06:14:04;6.32;;;4.60;;
62574;SDS011;70119;45.638;11.714;2023-07-02T06:16:30;7.63;;;4.80;;
62574;SDS011;70119;45.638;11.714;2023-07-02T06:18:55;6.72;;;4.80;;
62574;SDS011;70119;45.638;11.714;2023-07-02T06:21:21;7.75;;;4.80;;
62574;SDS011;70119;45.638;11.714;2023-07-02T06:23:48;6.72;;;4.47;;
62574;SDS011;70119;45.638;11.714;2023-07-02T06:26:14;6.60;;;4.63;;
62574;SDS011;70119;45.638;11.714;2023-07-02T06:28:40;7.03;;;4.70;;
62574;SDS011;70119;45.638;11.714;2023-07-02T06:31:06;6.03;;;4.40;;
62574;SDS011;70119;45.638;11.714;2023-07-02T06:33:32;7.28;;;4.65;;
62574;SDS011;70119;45.638;11.714;2023-07-02T06:35:57;7.82;;;5.05;;
62574;SDS011;70119;45.638;11.714;2023-07-02T06:38:24;7.00;;;4.95;;
62574;SDS011;70119;45.638;11.714;2023-07-02T06:40:49;7.50;;;4.80;;
62574;SDS011;70119;45.638;11.714;2023-07-02T06:43:15;7.47;;;5.00;;
62574;SDS011;70119;45.638;11.714;2023-07-02T06:45:41;7.38;;;4.88;;
62574;SDS011;70119;45.638;11.714;2023-07-02T06:48:07;10.10;;;5.30;;
62574;SDS011;70119;45.638;11.714;2023-07-02T06:50:33;7.63;;;5.07;;
62574;SDS011;70119;45.638;11.714;2023-07-02T06:52:59;6.70;;;4.93;;
62574;SDS011;70119;45.638;11.714;2023-07-02T06:55:25;7.75;;;5.10;;
62574;SDS011;70119;45.638;11.714;2023-07-02T06:57:50;6.60;;;5.13;;
62574;SDS011;70119;45.638;11.714;2023-07-02T07:00:16;8.55;;;5.65;;
62574;SDS011;70119;45.638;11.714;2023-07-02T07:02:42;7.78;;;5.47;;
62574;SDS011;70119;45.638;11.714;2023-07-02T07:05:08;8.40;;;5.75;;
62574;SDS011;70119;45.638;11.714;2023-07-02T07:07:34;8.77;;;5.40;;
62574;SDS011;70119;45.638;11.714;2023-07-02T07:10:00;8.20;;;5.80;;
62574;SDS011;70119;45.638;11.714;2023-07-02T07:12:26;8.02;;;5.22;;
62574;SDS011;70119;45.638;11.714;2023-07-02T07:14:52;7.43;;;5.25;;
62574;SDS011;70119;45.638;11.714;2023-07-02T07:17:18;8.45;;;5.40;;
62574;SDS011;70119;45.638;11.714;2023-07-02T07:19:44;6.97;;;5.22;;
62574;SDS011;70119;45.638;11.714;2023-07-02T07:22:10;7.38;;;5.47;;
62574;SDS011;70119;45.638;11.714;2023-07-02T07:24:36;8.10;;;5.45;;
62574;SDS011;70119;45.638;11.714;2023-07-02T07:27:02;7.70;;;5.40;;
62574;SDS011;70119;45.638;11.714;2023-07-02T07:29:28;8.90;;;5.50;;
62574;SDS011;70119;45.638;11.714;2023-07-02T07:31:54;8.52;;;5.63;;
62574;SDS011;70119;45.638;11.714;2023-07-02T07:34:20;7.88;;;5.35;;
62574;SDS011;70119;45.638;11.714;2023-07-02T07:36:45;6.95;;;5.20;;
62574;SDS011;70119;45.638;11.714;2023-07-02T07:39:11;7.57;;;5.03;;
62574;SDS011;70119;45.638;11.714;2023-07-02T07:41:37;8.52;;;5.53;;
62574;SDS011;70119;45.638;11.714;2023-07-02T07:44:03;8.10;;;5.30;;
62574;SDS011;70119;45.638;11.714;2023-07-02T07:46:29;8.10;;;5.57;;
62574;SDS011;70119;45.638;11.714;2023-07-02T07:48:55;7.80;;;5.38;;
62574;SDS011;70119;45.638;11.714;2023-07-02T07:51:21;7.50;;;5.20;;
62574;SDS011;70119;45.638;11.714;2023-07-02T07:53:46;7.43;;;5.50;;
62574;SDS011;70119;45.638;11.714;2023-07-02T07:56:12;7.88;;;5.43;;
62574;SDS011;70119;45.638;11.714;2023-07-02T07:58:38;7.30;;;5.32;;
62574;SDS011;70119;45.638;11.714;2023-07-02T08:01:04;9.95;;;5.55;;
62574;SDS011;70119;45.638;11.714;2023-07-02T08:03:30;7.70;;;5.20;;
62574;SDS011;70119;45.638;11.714;2023-07-02T08:05:56;7.70;;;5.40;;
62574;SDS011;70119;45.638;11.714;2023-07-02T08:08:22;8.80;;;5.75;;
62574;SDS011;70119;45.638;11.714;2023-07-02T08:10:48;7.45;;;5.30;;
62574;SDS011;70119;45.638;11.714;2023-07-02T08:13:15;7.28;;;5.15;;
62574;SDS011;70119;45.638;11.714;2023-07-02T08:15:42;7.65;;;5.18;;
62574;SDS011;70119;45.638;11.714;2023-07-02T08:18:08;8.10;;;5.22;;
62574;SDS011;70119;45.638;11.714;2023-07-02T08:20:37;6.93;;;4.63;;
62574;SDS011;70119;45.638;11.714;2023-07-02T08:23:02;7.93;;;5.07;;
62574;SDS011;70119;45.638;11.714;2023-07-02T08:25:28;6.25;;;4.43;;
62574;SDS011;70119;45.638;11.714;2023-07-02T08:27:55;8.52;;;5.20;;
62574;SDS011;70119;45.638;11.714;2023-07-02T08:30:21;7.88;;;4.88;;
62574;SDS011;70119;45.638;11.714;2023-07-02T08:32:47;6.95;;;4.90;;
62574;SDS011;70119;45.638;11.714;2023-07-02T08:35:13;7.57;;;4.75;;
62574;SDS011;70119;45.638;11.714;2023-07-02T08:37:39;7.40;;;5.35;;
62574;SDS011;70119;45.638;11.714;2023-07-02T08:40:05;7.47;;;5.15;;
62574;SDS011;70119;45.638;11.714;2023-07-02T08:42:32;8.77;;;5.40;;
62574;SDS011;70119;45.638;11.714;2023-07-02T08:44:59;7.75;;;5.20;;
62574;SDS011;70119;45.638;11.714;2023-07-02T08:47:25;8.15;;;5.28;;
62574;SDS011;70119;45.638;11.714;2023-07-02T08:49:52;7.30;;;4.75;;
62574;SDS011;70119;45.638;11.714;2023-07-02T08:52:18;7.82;;;5.20;;
62574;SDS011;70119;45.638;11.714;2023-07-02T08:54:44;8.75;;;5.07;;
62574;SDS011;70119;45.638;11.714;2023-07-02T08:57:10;7.72;;;5.13;;
62574;SDS011;70119;45.638;11.714;2023-07-02T08:59:36;7.90;;;5.50;;
62574;SDS011;70119;45.638;11.714;2023-07-02T09:02:02;7.10;;;4.90;;
62574;SDS011;70119;45.638;11.714;2023-07-02T09:04:29;7.32;;;5.03;;
62574;SDS011;70119;45.638;11.714;2023-07-02T09:09:30;6.25;;;4.65;;
62574;SDS011;70119;45.638;11.714;2023-07-02T09:11:57;8.45;;;5.15;;
62574;SDS011;70119;45.638;11.714;2023-07-02T09:14:23;7.18;;;5.20;;
62574;SDS011;70119;45.638;11.714;2023-07-02T09:17:00;8.95;;;5.43;;
62574;SDS011;70119;45.638;11.714;2023-07-02T09:19:28;9.73;;;6.00;;
62574;SDS011;70119;45.638;11.714;2023-07-02T09:21:56;7.80;;;5.30;;
62574;SDS011;70119;45.638;11.714;2023-07-02T09:24:24;7.15;;;4.93;;
62574;SDS011;70119;45.638;11.714;2023-07-02T09:26:51;8.80;;;5.13;;
62574;SDS011;70119;45.638;11.714;2023-07-02T09:29:28;9.45;;;5.38;;
62574;SDS011;70119;45.638;11.714;2023-07-02T09:31:56;7.43;;;5.05;;
62574;SDS011;70119;45.638;11.714;2023-07-02T09:34:27;10.38;;;5.80;;
62574;SDS011;70119;45.638;11.714;2023-07-02T09:36:54;7.72;;;4.75;;
62574;SDS011;70119;45.638;11.714;2023-07-02T09:39:24;10.57;;;4.97;;
62574;SDS011;70119;45.638;11.714;2023-07-02T09:41:57;9.07;;;5.28;;
62574;SDS011;70119;45.638;11.714;2023-07-02T09:44:27;6.93;;;4.90;;
62574;SDS011;70119;45.638;11.714;2023-07-02T09:49:27;8.68;;;5.50;;
62574;SDS011;70119;45.638;11.714;2023-07-02T09:51:59;7.85;;;5.38;;
62574;SDS011;70119;45.638;11.714;2023-07-02T09:54:29;8.35;;;5.53;;
62574;SDS011;70119;45.638;11.714;2023-07-02T09:56:59;7.43;;;4.97;;
62574;SDS011;70119;45.638;11.714;2023-07-02T09:59:25;9.43;;;5.53;;
62574;SDS011;70119;45.638;11.714;2023-07-02T10:01:52;7.60;;;5.30;;
62574;SDS011;70119;45.638;11.714;2023-07-02T10:04:18;7.47;;;4.95;;
62574;SDS011;70119;45.638;11.714;2023-07-02T10:06:52;7.00;;;4.93;;
62574;SDS011;70119;45.638;11.714;2023-07-02T10:09:22;7.85;;;5.40;;
62574;SDS011;70119;45.638;11.714;2023-07-02T10:12:24;7.45;;;4.80;;
62574;SDS011;70119;45.638;11.714;2023-07-02T10:14:54;6.55;;;4.60;;
62574;SDS011;70119;45.638;11.714;2023-07-02T10:17:28;7.82;;;4.60;;
62574;SDS011;70119;45.638;11.714;2023-07-02T10:19:57;8.05;;;5.20;;
62574;SDS011;70119;45.638;11.714;2023-07-02T10:22:41;7.20;;;5.03;;
62574;SDS011;70119;45.638;11.714;2023-07-02T10:25:09;7.80;;;5.00;;
62574;SDS011;70119;45.638;11.714;2023-07-02T10:27:35;6.35;;;4.60;;
62574;SDS011;70119;45.638;11.714;2023-07-02T10:30:06;7.40;;;4.80;;
62574;SDS011;70119;45.638;11.714;2023-07-02T10:32:35;6.73;;;4.43;;
62574;SDS011;70119;45.638;11.714;2023-07-02T10:35:15;6.75;;;5.00;;
62574;SDS011;70119;45.638;11.714;2023-07-02T10:37:42;6.82;;;4.63;;
62574;SDS011;70119;45.638;11.714;2023-07-02T10:40:08;6.38;;;4.47;;
62574;SDS011;70119;45.638;11.714;2023-07-02T10:42:48;8.23;;;5.00;;
62574;SDS011;70119;45.638;11.714;2023-07-02T10:45:15;6.72;;;4.85;;
62574;SDS011;70119;45.638;11.714;2023-07-02T10:47:41;6.38;;;4.35;;
62574;SDS011;70119;45.638;11.714;2023-07-02T10:52:41;6.78;;;4.68;;
62574;SDS011;70119;45.638;11.714;2023-07-02T10:55:07;6.43;;;4.68;;
62574;SDS011;70119;45.638;11.714;2023-07-02T10:57:33;7.57;;;4.90;;
62574;SDS011;70119;45.638;11.714;2023-07-02T11:00:05;7.38;;;4.80;;
62574;SDS011;70119;45.638;11.714;2023-07-02T11:02:35;7.05;;;4.55;;
62574;SDS011;70119;45.638;11.714;2023-07-02T11:05:03;6.10;;;4.50;;
62574;SDS011;70119;45.638;11.714;2023-07-02T11:07:31;6.35;;;4.72;;
62574;SDS011;70119;45.638;11.714;2023-07-02T11:09:58;6.82;;;4.40;;
62574;SDS011;70119;45.638;11.714;2023-07-02T11:12:27;6.95;;;4.80;;
62574;SDS011;70119;45.638;11.714;2023-07-02T11:14:54;7.03;;;5.10;;
62574;SDS011;70119;45.638;11.714;2023-07-02T11:17:24;7.18;;;4.60;;
62574;SDS011;70119;45.638;11.714;2023-07-02T11:19:53;6.88;;;4.93;;
62574;SDS011;70119;45.638;11.714;2023-07-02T11:22:19;7.93;;;5.13;;
62574;SDS011;70119;45.638;11.714;2023-07-02T11:24:44;7.18;;;5.05;;
62574;SDS011;70119;45.638;11.714;2023-07-02T11:27:10;6.65;;;4.97;;
62574;SDS011;70119;45.638;11.714;2023-07-02T11:29:47;7.00;;;4.50;;
62574;SDS011;70119;45.638;11.714;2023-07-02T11:32:12;8.10;;;5.00;;
62574;SDS011;70119;45.638;11.714;2023-07-02T11:34:39;7.18;;;4.43;;
62574;SDS011;70119;45.638;11.714;2023-07-02T11:37:05;6.20;;;4.57;;
62574;SDS011;70119;45.638;11.714;2023-07-02T11:39:31;6.35;;;4.57;;
62574;SDS011;70119;45.638;11.714;2023-07-02T11:41:58;7.10;;;4.80;;
62574;SDS011;70119;45.638;11.714;2023-07-02T11:44:25;7.03;;;5.13;;
62574;SDS011;70119;45.638;11.714;2023-07-02T11:46:52;7.82;;;4.80;;
62574;SDS011;70119;45.638;11.714;2023-07-02T11:49:19;6.93;;;5.00;;
62574;SDS011;70119;45.638;11.714;2023-07-02T11:51:46;8.50;;;4.93;;
62574;SDS011;70119;45.638;11.714;2023-07-02T11:54:18;7.10;;;4.78;;
62574;SDS011;70119;45.638;11.714;2023-07-02T11:56:45;6.57;;;4.70;;
62574;SDS011;70119;45.638;11.714;2023-07-02T11:59:12;7.15;;;5.00;;
62574;SDS011;70119;45.638;11.714;2023-07-02T12:01:39;8.25;;;4.85;;
62574;SDS011;70119;45.638;11.714;2023-07-02T12:04:09;7.55;;;5.10;;
62574;SDS011;70119;45.638;11.714;2023-07-02T12:06:40;7.82;;;5.18;;
62574;SDS011;70119;45.638;11.714;2023-07-02T12:09:10;8.05;;;5.55;;
62574;SDS011;70119;45.638;11.714;2023-07-02T12:11:36;6.45;;;5.00;;
62574;SDS011;70119;45.638;11.714;2023-07-02T12:14:02;7.18;;;5.10;;
62574;SDS011;70119;45.638;11.714;2023-07-02T12:16:27;8.70;;;5.15;;
62574;SDS011;70119;45.638;11.714;2023-07-02T12:18:53;7.13;;;4.80;;
62574;SDS011;70119;45.638;11.714;2023-07-02T12:21:19;8.00;;;5.28;;
62574;SDS011;70119;45.638;11.714;2023-07-02T12:23:45;8.23;;;5.80;;
62574;SDS011;70119;45.638;11.714;2023-07-02T12:26:11;8.52;;;6.10;;
62574;SDS011;70119;45.638;11.714;2023-07-02T12:28:37;8.43;;;5.60;;
62574;SDS011;70119;45.638;11.714;2023-07-02T12:31:03;8.30;;;5.70;;
62574;SDS011;70119;45.638;11.714;2023-07-02T12:33:29;7.60;;;5.57;;
62574;SDS011;70119;45.638;11.714;2023-07-02T12:35:55;8.77;;;5.70;;
62574;SDS011;70119;45.638;11.714;2023-07-02T12:38:20;7.25;;;5.40;;
62574;SDS011;70119;45.638;11.714;2023-07-02T12:40:47;8.27;;;5.70;;
62574;SDS011;70119;45.638;11.714;2023-07-02T12:43:13;7.13;;;5.00;;
62574;SDS011;70119;45.638;11.714;2023-07-02T12:45:40;9.43;;;5.88;;
62574;SDS011;70119;45.638;11.714;2023-07-02T12:48:05;7.57;;;5.10;;
62574;SDS011;70119;45.638;11.714;2023-07-02T12:50:31;8.55;;;5.70;;
62574;SDS011;70119;45.638;11.714;2023-07-02T12:52:57;7.78;;;5.78;;
62574;SDS011;70119;45.638;11.714;2023-07-02T12:55:24;6.97;;;5.20;;
62574;SDS011;70119;45.638;11.714;2023-07-02T12:57:58;6.80;;;5.10;;
62574;SDS011;70119;45.638;11.714;2023-07-02T13:00:25;7.20;;;5.40;;
62574;SDS011;70119;45.638;11.714;2023-07-02T13:02:50;7.13;;;5.65;;
62574;SDS011;70119;45.638;11.714;2023-07-02T13:05:16;7.90;;;5.68;;
62574;SDS011;70119;45.638;11.714;2023-07-02T13:07:42;7.70;;;5.70;;
62574;SDS011;70119;45.638;11.714;2023-07-02T13:10:09;6.65;;;5.38;;
62574;SDS011;70119;45.638;11.714;2023-07-02T13:12:35;7.10;;;5.20;;
62574;SDS011;70119;45.638;11.714;2023-07-02T13:15:01;6.85;;;5.32;;
62574;SDS011;70119;45.638;11.714;2023-07-02T13:17:28;7.82;;;5.10;;
62574;SDS011;70119;45.638;11.714;2023-07-02T13:19:54;8.05;;;5.40;;
62574;SDS011;70119;45.638;11.714;2023-07-02T13:22:21;7.10;;;5.10;;
62574;SDS011;70119;45.638;11.714;2023-07-02T13:24:48;6.68;;;5.18;;
62574;SDS011;70119;45.638;11.714;2023-07-02T13:27:14;6.50;;;5.20;;
62574;SDS011;70119;45.638;11.714;2023-07-02T13:29:42;7.40;;;5.13;;
62574;SDS011;70119;45.638;11.714;2023-07-02T13:32:08;7.53;;;5.38;;
62574;SDS011;70119;45.638;11.714;2023-07-02T13:34:34;8.57;;;5.22;;
62574;SDS011;70119;45.638;11.714;2023-07-02T13:37:00;6.85;;;5.25;;
62574;SDS011;70119;45.638;11.714;2023-07-02T13:39:28;7.35;;;5.65;;
62574;SDS011;70119;45.638;11.714;2023-07-02T13:41:55;7.43;;;5.28;;
62574;SDS011;70119;45.638;11.714;2023-07-02T13:44:20;7.63;;;5.38;;
62574;SDS011;70119;45.638;11.714;2023-07-02T13:46:46;7.10;;;5.38;;
62574;SDS011;70119;45.638;11.714;2023-07-02T13:49:13;7.07;;;5.15;;
62574;SDS011;70119;45.638;11.714;2023-07-02T13:51:38;6.95;;;5.30;;
62574;SDS011;70119;45.638;11.714;2023-07-02T13:54:04;6.93;;;5.13;;
62574;SDS011;70119;45.638;11.714;2023-07-02T13:56:30;6.63;;;5.22;;
62574;SDS011;70119;45.638;11.714;2023-07-02T14:01:22;6.80;;;5.30;;
62574;SDS011;70119;45.638;11.714;2023-07-02T14:03:49;7.50;;;5.18;;
62574;SDS011;70119;45.638;11.714;2023-07-02T14:06:15;6.43;;;5.30;;
62574;SDS011;70119;45.638;11.714;2023-07-02T14:08:41;6.95;;;5.00;;
62574;SDS011;70119;45.638;11.714;2023-07-02T14:11:07;6.90;;;5.30;;
62574;SDS011;70119;45.638;11.714;2023-07-02T14:13:33;7.00;;;5.43;;
62574;SDS011;70119;45.638;11.714;2023-07-02T14:16:00;6.63;;;5.32;;
62574;SDS011;70119;45.638;11.714;2023-07-02T14:18:27;6.20;;;4.57;;
62574;SDS011;70119;45.638;11.714;2023-07-02T14:20:53;7.60;;;5.47;;
62574;SDS011;70119;45.638;11.714;2023-07-02T14:23:18;6.35;;;5.07;;
62574;SDS011;70119;45.638;11.714;2023-07-02T14:25:44;6.78;;;5.30;;
62574;SDS011;70119;45.638;11.714;2023-07-02T14:28:10;6.63;;;5.30;;
62574;SDS011;70119;45.638;11.714;2023-07-02T14:30:36;6.47;;;5.10;;
62574;SDS011;70119;45.638;11.714;2023-07-02T14:33:02;6.47;;;5.22;;
62574;SDS011;70119;45.638;11.714;2023-07-02T14:35:28;6.72;;;5.25;;
62574;SDS011;70119;45.638;11.714;2023-07-02T14:37:56;7.07;;;5.20;;
62574;SDS011;70119;45.638;11.714;2023-07-02T14:40:22;7.00;;;5.57;;
62574;SDS011;70119;45.638;11.714;2023-07-02T14:42:48;6.63;;;5.30;;
62574;SDS011;70119;45.638;11.714;2023-07-02T14:45:14;7.97;;;5.20;;